createdAt,value
2023-03-05T00:02:07.419Z,7.14
2023-03-05T00:04:33.852Z,7.09
2023-03-05T00:07:00.223Z,7.01
2023-03-05T00:09:26.604Z,7.14
2023-03-05T00:11:52.989Z,7.18
2023-03-05T00:14:19.370Z,7.26
2023-03-05T00:16:45.734Z,7.39
2023-03-05T00:19:12.163Z,7.31
2023-03-05T00:21:38.550Z,7.51
2023-03-05T00:24:04.991Z,7.32
2023-03-05T00:26:31.414Z,7.21
2023-03-05T00:28:57.807Z,7.25
2023-03-05T00:31:24.236Z,7.22
2023-03-05T00:33:50.666Z,7.20
2023-03-05T00:36:17.043Z,6.88
2023-03-05T00:38:43.436Z,6.92
2023-03-05T00:41:09.808Z,6.94
2023-03-05T00:43:36.338Z,6.90
2023-03-05T00:46:02.772Z,6.93
2023-03-05T00:48:29.166Z,6.96
2023-03-05T00:50:55.541Z,6.90
2023-03-05T00:53:21.957Z,6.84
2023-03-05T00:55:48.345Z,6.74
2023-03-05T00:58:14.792Z,6.85
2023-03-05T01:00:41.253Z,6.85
2023-03-05T01:03:07.712Z,6.78
2023-03-05T01:05:34.167Z,6.72
2023-03-05T01:08:00.602Z,6.69
2023-03-05T01:10:27.000Z,6.61
2023-03-05T01:12:53.385Z,6.62
2023-03-05T01:15:19.826Z,6.61
2023-03-05T01:17:46.244Z,6.51
2023-03-05T01:20:12.613Z,6.54
2023-03-05T01:22:38.991Z,6.49
2023-03-05T01:25:05.360Z,6.60
2023-03-05T01:27:31.764Z,6.48
2023-03-05T01:29:58.166Z,6.54
2023-03-05T01:32:24.607Z,6.57
2023-03-05T01:34:50.981Z,6.61
2023-03-05T01:37:17.333Z,6.58
2023-03-05T01:39:43.732Z,6.54
2023-03-05T01:42:10.227Z,6.50
2023-03-05T01:44:36.607Z,6.42
2023-03-05T01:47:02.958Z,6.29
2023-03-05T01:49:29.431Z,6.25
2023-03-05T01:51:55.823Z,6.36
2023-03-05T01:54:22.176Z,6.34
2023-03-05T01:56:48.570Z,6.42
2023-03-05T01:59:14.954Z,6.31
2023-03-05T02:01:41.360Z,6.13
2023-03-05T02:04:07.823Z,6.10
2023-03-05T02:06:34.238Z,6.09
2023-03-05T02:09:00.625Z,6.04
2023-03-05T02:11:27.025Z,6.03
2023-03-05T02:13:53.409Z,6.03
2023-03-05T02:16:19.836Z,5.99
2023-03-05T02:18:46.222Z,5.98
2023-03-05T02:21:12.597Z,6.03
2023-03-05T02:23:38.991Z,6.01
2023-03-05T02:26:05.361Z,6.08
2023-03-05T02:28:31.723Z,6.17
2023-03-05T02:30:58.193Z,6.18
2023-03-05T02:33:24.659Z,6.04
2023-03-05T02:35:51.073Z,5.98
2023-03-05T02:38:17.484Z,5.93
2023-03-05T02:40:43.867Z,6.05
2023-03-05T02:43:10.304Z,5.96
2023-03-05T02:45:36.721Z,5.89
2023-03-05T02:48:03.121Z,5.83
2023-03-05T02:50:29.509Z,5.77
2023-03-05T02:52:55.891Z,5.77
2023-03-05T02:55:22.317Z,5.74
2023-03-05T02:57:48.721Z,5.71
2023-03-05T03:00:15.145Z,5.59
2023-03-05T03:02:41.537Z,5.60
2023-03-05T03:05:07.946Z,5.71
2023-03-05T03:07:34.358Z,5.69
2023-03-05T03:10:00.765Z,5.59
2023-03-05T03:12:27.148Z,5.37
2023-03-05T03:14:53.516Z,5.57
2023-03-05T03:17:19.936Z,5.56
2023-03-05T03:19:46.313Z,5.44
2023-03-05T03:22:12.699Z,5.38
2023-03-05T03:24:39.104Z,5.34
2023-03-05T03:27:05.463Z,5.27
2023-03-05T03:29:31.857Z,5.31
2023-03-05T03:31:58.280Z,5.19
2023-03-05T03:34:24.703Z,5.16
2023-03-05T03:36:51.104Z,5.13
2023-03-05T03:39:17.504Z,5.07
2023-03-05T03:41:43.879Z,5.22
2023-03-05T03:44:10.307Z,5.07
2023-03-05T03:46:36.708Z,5.20
2023-03-05T03:49:03.117Z,5.11
2023-03-05T03:51:29.520Z,5.06
2023-03-05T03:53:55.912Z,5.05
2023-03-05T03:56:22.271Z,5.06
2023-03-05T03:58:48.689Z,5.02
2023-03-05T04:01:15.072Z,4.99
2023-03-05T04:03:41.479Z,5.07
2023-03-05T04:06:07.841Z,5.15
2023-03-05T04:08:34.243Z,5.26
2023-03-05T04:11:00.600Z,5.19
2023-03-05T04:13:26.959Z,5.07
2023-03-05T04:15:53.373Z,5.13
2023-03-05T04:18:19.765Z,5.07
2023-03-05T04:20:46.221Z,4.98
2023-03-05T04:23:12.588Z,5.06
2023-03-05T04:25:39.025Z,4.88
2023-03-05T04:28:05.381Z,4.98
2023-03-05T04:30:31.798Z,4.92
2023-03-05T04:32:58.193Z,4.82
2023-03-05T04:35:24.585Z,4.87
2023-03-05T04:37:51.000Z,4.69
2023-03-05T04:40:17.369Z,4.66
2023-03-05T04:42:43.751Z,4.63
2023-03-05T04:45:10.135Z,4.53
2023-03-05T04:47:36.502Z,4.47
2023-03-05T04:50:02.897Z,4.58
2023-03-05T04:52:29.279Z,4.51
2023-03-05T04:54:55.669Z,4.56
2023-03-05T04:57:23.190Z,4.54
2023-03-05T04:59:50.472Z,4.61
2023-03-05T05:02:16.844Z,4.54
2023-03-05T05:04:43.254Z,4.45
2023-03-05T05:07:09.633Z,4.56
2023-03-05T05:09:36.030Z,4.48
2023-03-05T05:12:02.446Z,4.51
2023-03-05T05:14:28.883Z,4.51
2023-03-05T05:16:55.274Z,4.53
2023-03-05T05:19:21.736Z,4.44
2023-03-05T05:21:48.143Z,4.50
2023-03-05T05:24:14.530Z,4.41
2023-03-05T05:26:40.903Z,4.52
2023-03-05T05:29:07.334Z,4.52
2023-03-05T05:31:33.719Z,4.57
2023-03-05T05:34:00.222Z,4.35
2023-03-05T05:36:26.590Z,4.29
2023-03-05T05:38:52.956Z,4.34
2023-03-05T05:41:19.340Z,4.34
2023-03-05T05:43:45.786Z,4.22
2023-03-05T05:46:12.273Z,4.26
2023-03-05T05:48:38.762Z,4.09
2023-03-05T05:51:05.201Z,3.98
2023-03-05T05:53:31.583Z,4.06
2023-03-05T05:55:57.960Z,4.01
2023-03-05T05:58:24.405Z,3.87
2023-03-05T06:00:50.811Z,3.90
2023-03-05T06:03:17.314Z,3.74
2023-03-05T06:05:43.894Z,3.66
2023-03-05T06:08:10.297Z,3.65
2023-03-05T06:10:36.675Z,3.63
2023-03-05T06:13:03.084Z,3.82
2023-03-05T06:15:29.482Z,3.86
2023-03-05T06:17:55.863Z,3.89
2023-03-05T06:20:22.318Z,4.03
2023-03-05T06:22:48.732Z,4.03
2023-03-05T06:25:15.221Z,4.13
2023-03-05T06:27:41.597Z,4.14
2023-03-05T06:30:08.007Z,4.16
2023-03-05T06:32:34.460Z,4.25
2023-03-05T06:35:00.922Z,4.14
2023-03-05T06:37:27.284Z,4.29
2023-03-05T06:39:53.668Z,4.34
2023-03-05T06:42:20.033Z,4.29
2023-03-05T06:44:48.197Z,4.34
2023-03-05T06:47:14.687Z,4.42
2023-03-05T06:49:41.092Z,4.40
2023-03-05T06:52:07.475Z,4.47
2023-03-05T06:54:33.830Z,4.48
2023-03-05T06:57:00.213Z,4.57
2023-03-05T06:59:26.568Z,4.47
2023-03-05T07:01:52.962Z,4.50
2023-03-05T07:04:19.373Z,4.61
2023-03-05T07:06:45.769Z,4.68
2023-03-05T07:09:12.151Z,4.68
2023-03-05T07:11:38.535Z,4.84
2023-03-05T07:14:04.958Z,4.90
2023-03-05T07:16:31.325Z,4.93
2023-03-05T07:18:57.806Z,5.02
2023-03-05T07:21:24.189Z,5.01
2023-03-05T07:23:50.651Z,4.94
2023-03-05T07:26:17.039Z,4.98
2023-03-05T07:28:43.428Z,4.88
2023-03-05T07:31:09.903Z,4.74
2023-03-05T07:33:36.307Z,4.81
2023-03-05T07:36:02.702Z,4.56
2023-03-05T07:38:29.091Z,4.68
2023-03-05T07:40:55.487Z,4.59
2023-03-05T07:43:21.868Z,5.13
2023-03-05T07:45:48.289Z,5.73
2023-03-05T07:48:14.775Z,5.62
2023-03-05T07:50:41.201Z,5.42
2023-03-05T07:53:07.614Z,5.47
2023-03-05T07:55:34.067Z,5.36
2023-03-05T07:58:00.510Z,5.47
2023-03-05T08:00:27.041Z,5.43
2023-03-05T08:02:53.557Z,5.57
2023-03-05T08:05:19.965Z,5.60
2023-03-05T08:07:47.385Z,5.63
2023-03-05T08:10:13.759Z,5.72
2023-03-05T08:12:40.171Z,5.73
2023-03-05T08:15:06.551Z,5.82
2023-03-05T08:17:32.956Z,5.87
2023-03-05T08:19:59.330Z,5.80
2023-03-05T08:22:25.732Z,5.52
2023-03-05T08:24:52.108Z,5.03
2023-03-05T08:27:18.543Z,4.84
2023-03-05T08:29:45.013Z,4.48
2023-03-05T08:32:11.430Z,4.45
2023-03-05T08:34:37.862Z,4.66
2023-03-05T08:37:04.241Z,4.75
2023-03-05T08:39:30.669Z,4.86
2023-03-05T08:41:57.057Z,4.93
2023-03-05T08:44:23.423Z,5.09
2023-03-05T08:46:49.903Z,5.29
2023-03-05T08:49:16.432Z,5.34
2023-03-05T08:51:42.877Z,5.58
2023-03-05T08:54:09.264Z,5.50
2023-03-05T08:56:35.736Z,5.72
2023-03-05T08:59:02.150Z,5.65
2023-03-05T09:01:28.545Z,5.82
2023-03-05T09:03:54.961Z,5.87
2023-03-05T09:06:21.337Z,5.95
2023-03-05T09:08:47.730Z,6.07
2023-03-05T09:11:14.190Z,6.09
2023-03-05T09:13:40.638Z,6.03
2023-03-05T09:16:07.265Z,6.03
2023-03-05T09:18:33.682Z,6.28
2023-03-05T09:21:00.077Z,6.26
2023-03-05T09:23:26.504Z,6.32
2023-03-05T09:25:52.873Z,6.47
2023-03-05T09:28:19.373Z,6.63
2023-03-05T09:30:46.484Z,6.69
2023-03-05T09:33:12.867Z,6.64
2023-03-05T09:35:39.291Z,6.78
2023-03-05T09:38:05.710Z,7.02
2023-03-05T09:40:32.108Z,7.25
2023-03-05T09:42:58.511Z,7.12
2023-03-05T09:45:24.929Z,7.27
2023-03-05T09:47:51.291Z,6.60
2023-03-05T09:50:17.689Z,5.41
2023-03-05T09:52:45.821Z,5.61
2023-03-05T09:55:12.201Z,5.96
2023-03-05T09:57:38.585Z,6.35
2023-03-05T10:00:04.970Z,6.44
2023-03-05T10:02:31.342Z,5.87
2023-03-05T10:04:57.742Z,5.63
2023-03-05T10:07:24.100Z,5.59
2023-03-05T10:09:50.496Z,5.53
2023-03-05T10:12:16.929Z,5.74
2023-03-05T10:14:43.317Z,5.83
2023-03-05T10:17:09.750Z,5.94
2023-03-05T10:19:36.224Z,6.08
2023-03-05T10:22:02.611Z,6.38
2023-03-05T10:24:29.036Z,6.65
2023-03-05T10:26:55.417Z,6.62
2023-03-05T10:29:21.862Z,7.11
2023-03-05T10:31:48.269Z,7.06
2023-03-05T10:34:14.655Z,7.33
2023-03-05T10:36:41.136Z,7.54
2023-03-05T10:39:07.716Z,7.47
2023-03-05T10:41:34.079Z,7.46
2023-03-05T10:44:00.446Z,7.60
2023-03-05T10:46:27.023Z,7.24
2023-03-05T10:48:53.386Z,7.18
2023-03-05T10:51:19.799Z,7.51
2023-03-05T10:53:46.179Z,7.46
2023-03-05T10:56:12.609Z,7.44
2023-03-05T10:58:38.976Z,7.04
2023-03-05T11:01:05.462Z,7.33
2023-03-05T11:03:31.869Z,7.55
2023-03-05T11:05:58.225Z,7.55
2023-03-05T11:08:24.645Z,7.83
2023-03-05T11:10:51.042Z,8.08
2023-03-05T11:13:17.429Z,8.50
2023-03-05T11:15:43.874Z,8.05
2023-03-05T11:18:10.290Z,8.27
2023-03-05T11:20:36.698Z,7.95
2023-03-05T11:23:03.076Z,8.02
2023-03-05T11:25:29.541Z,7.69
2023-03-05T11:27:55.900Z,8.07
2023-03-05T11:30:22.296Z,7.82
2023-03-05T11:32:48.701Z,8.05
2023-03-05T11:35:15.118Z,8.21
2023-03-05T11:37:41.550Z,8.21
2023-03-05T11:40:07.961Z,8.47
2023-03-05T11:42:34.417Z,8.17
2023-03-05T11:45:00.816Z,8.59
2023-03-05T11:47:27.263Z,8.99
2023-03-05T11:49:53.637Z,7.99
2023-03-05T11:52:20.066Z,8.32
2023-03-05T11:54:46.432Z,8.91
2023-03-05T11:57:12.821Z,8.65
2023-03-05T11:59:39.237Z,8.68
2023-03-05T12:02:05.607Z,9.20
2023-03-05T12:04:33.035Z,8.27
2023-03-05T12:06:59.420Z,8.62
2023-03-05T12:09:25.802Z,8.87
2023-03-05T12:11:52.194Z,8.40
2023-03-05T12:14:18.582Z,8.54
2023-03-05T12:16:45.229Z,8.96
2023-03-05T12:19:11.632Z,9.12
2023-03-05T12:21:38.013Z,9.03
2023-03-05T12:24:04.396Z,8.60
2023-03-05T12:26:30.798Z,9.35
2023-03-05T12:28:57.181Z,9.19
2023-03-05T12:31:23.707Z,9.67
2023-03-05T12:33:50.110Z,9.69
2023-03-05T12:36:16.515Z,9.58
2023-03-05T12:38:42.911Z,9.05
2023-03-05T12:41:09.323Z,9.35
2023-03-05T12:43:35.714Z,9.75
2023-03-05T12:46:02.075Z,9.99
2023-03-05T12:48:28.526Z,10.65
2023-03-05T12:50:54.901Z,11.20
2023-03-05T12:53:21.304Z,11.17
2023-03-05T12:55:47.695Z,10.57
2023-03-05T12:58:14.059Z,10.02
2023-03-05T13:00:40.500Z,10.82
2023-03-05T13:03:06.959Z,9.81
2023-03-05T13:05:33.400Z,10.26
2023-03-05T13:07:59.756Z,10.12
2023-03-05T13:10:26.121Z,9.80
2023-03-05T13:12:52.557Z,10.93
2023-03-05T13:15:18.931Z,11.23
2023-03-05T13:17:45.469Z,11.50
2023-03-05T13:20:11.919Z,11.21
2023-03-05T13:22:38.350Z,10.37
2023-03-05T13:25:04.824Z,10.79
2023-03-05T13:27:31.204Z,11.22
2023-03-05T13:29:57.571Z,11.38
2023-03-05T13:32:23.985Z,11.63
2023-03-05T13:34:50.405Z,11.68
2023-03-05T13:37:16.861Z,11.50
2023-03-05T13:39:43.242Z,11.67
2023-03-05T13:42:09.603Z,12.07
2023-03-05T13:44:36.239Z,12.36
2023-03-05T13:47:02.742Z,11.43
2023-03-05T13:49:29.103Z,11.87
2023-03-05T13:51:55.490Z,11.51
2023-03-05T13:54:22.933Z,10.87
2023-03-05T13:56:49.303Z,11.32
2023-03-05T13:59:15.777Z,11.41
2023-03-05T14:01:42.173Z,10.51
2023-03-05T14:04:08.615Z,11.80
2023-03-05T14:06:35.028Z,12.15
2023-03-05T14:09:01.474Z,12.65
2023-03-05T14:11:27.868Z,12.87
2023-03-05T14:13:54.225Z,13.07
2023-03-05T14:16:20.593Z,13.17
2023-03-05T14:18:47.057Z,13.44
2023-03-05T14:21:13.472Z,12.92
2023-03-05T14:23:39.838Z,13.15
2023-03-05T14:26:07.357Z,13.09
2023-03-05T14:28:33.778Z,13.35
2023-03-05T14:31:00.201Z,13.65
2023-03-05T14:33:26.623Z,13.46
2023-03-05T14:35:53.076Z,13.58
2023-03-05T14:38:19.577Z,12.91
2023-03-05T14:40:45.976Z,13.21
2023-03-05T14:43:12.368Z,13.24
2023-03-05T14:45:38.787Z,13.00
2023-03-05T14:48:05.194Z,13.46
2023-03-05T14:50:31.579Z,13.53
2023-03-05T14:52:58.017Z,13.41
2023-03-05T14:55:24.385Z,13.49
2023-03-05T14:57:50.813Z,14.15
2023-03-05T15:00:17.192Z,13.77
2023-03-05T15:02:43.688Z,14.61
2023-03-05T15:05:10.147Z,14.59
2023-03-05T15:07:36.569Z,14.54
2023-03-05T15:10:03.013Z,15.01
2023-03-05T15:12:29.400Z,14.32
2023-03-05T15:14:55.766Z,15.16
2023-03-05T15:17:22.146Z,14.74
2023-03-05T15:19:48.569Z,14.90
2023-03-05T15:22:14.961Z,14.76
2023-03-05T15:24:41.333Z,14.94
2023-03-05T15:27:07.716Z,14.55
2023-03-05T15:29:34.061Z,14.64
2023-03-05T15:32:00.515Z,14.76
2023-03-05T15:34:26.904Z,14.68
2023-03-05T15:36:53.311Z,15.51
2023-03-05T15:39:19.715Z,15.99
2023-03-05T15:41:46.099Z,16.61
2023-03-05T15:44:12.472Z,16.20
2023-03-05T15:46:38.869Z,16.63
2023-03-05T15:49:05.276Z,16.80
2023-03-05T15:51:31.660Z,16.57
2023-03-05T15:53:58.088Z,17.36
2023-03-05T15:56:24.466Z,16.66
2023-03-05T15:58:50.882Z,16.75
2023-03-05T16:01:17.347Z,16.77
2023-03-05T16:03:43.749Z,16.91
2023-03-05T16:06:10.163Z,16.47
2023-03-05T16:08:36.523Z,15.60
2023-03-05T16:11:02.918Z,15.36
2023-03-05T16:13:29.320Z,15.20
2023-03-05T16:15:55.731Z,15.23
2023-03-05T16:18:22.114Z,16.21
2023-03-05T16:20:48.480Z,15.62
2023-03-05T16:23:14.901Z,15.53
2023-03-05T16:25:41.287Z,15.46
2023-03-05T16:28:07.661Z,16.12
2023-03-05T16:30:34.026Z,16.47
2023-03-05T16:33:00.418Z,16.19
2023-03-05T16:35:26.852Z,16.43
2023-03-05T16:37:53.232Z,16.01
2023-03-05T16:40:19.622Z,15.88
2023-03-05T16:42:46.009Z,15.21
2023-03-05T16:45:12.409Z,15.63
2023-03-05T16:47:38.887Z,15.14
2023-03-05T16:50:05.271Z,14.63
2023-03-05T16:52:31.651Z,14.40
2023-03-05T16:54:58.080Z,13.66
2023-03-05T16:57:24.486Z,12.96
2023-03-05T16:59:50.874Z,12.17
2023-03-05T17:02:17.315Z,12.05
2023-03-05T17:04:43.684Z,12.14
2023-03-05T17:07:10.042Z,11.85
2023-03-05T17:09:36.422Z,11.78
2023-03-05T17:12:02.858Z,10.77
2023-03-05T17:14:29.285Z,10.35
2023-03-05T17:16:55.677Z,10.40
2023-03-05T17:19:22.093Z,10.25
2023-03-05T17:21:48.478Z,9.92
2023-03-05T17:24:14.849Z,9.91
2023-03-05T17:26:41.250Z,9.85
2023-03-05T17:29:07.662Z,9.43
2023-03-05T17:31:34.132Z,9.44
2023-03-05T17:34:00.564Z,9.30
2023-03-05T17:36:26.966Z,9.22
2023-03-05T17:38:53.349Z,9.26
2023-03-05T17:41:19.734Z,9.38
2023-03-05T17:43:46.119Z,9.43
2023-03-05T17:46:12.508Z,9.71
2023-03-05T17:48:38.891Z,9.91
2023-03-05T17:51:05.289Z,10.01
2023-03-05T17:53:31.706Z,10.04
2023-03-05T17:55:58.090Z,10.08
2023-03-05T17:58:24.502Z,10.16
2023-03-05T18:00:50.961Z,10.16
2023-03-05T18:03:17.353Z,10.21
2023-03-05T18:05:43.757Z,10.24
2023-03-05T18:08:10.145Z,10.34
2023-03-05T18:10:36.587Z,10.29
2023-03-05T18:13:02.970Z,10.38
2023-03-05T18:15:29.412Z,10.26
2023-03-05T18:17:55.803Z,10.20
2023-03-05T18:20:22.204Z,10.20
2023-03-05T18:22:48.610Z,10.08
2023-03-05T18:25:14.993Z,10.05
2023-03-05T18:27:41.415Z,10.04
2023-03-05T18:30:07.840Z,10.09
2023-03-05T18:32:34.246Z,10.04
2023-03-05T18:35:00.712Z,10.02
2023-03-05T18:37:27.066Z,9.86
2023-03-05T18:39:53.465Z,9.84
2023-03-05T18:42:19.820Z,9.90
2023-03-05T18:44:46.204Z,9.80
2023-03-05T18:47:13.595Z,9.76
2023-03-05T18:49:39.978Z,9.63
2023-03-05T18:52:06.364Z,9.61
2023-03-05T18:54:32.724Z,9.51
2023-03-05T18:56:59.109Z,9.55
2023-03-05T18:59:25.545Z,9.45
2023-03-05T19:01:51.945Z,9.23
2023-03-05T19:04:18.354Z,9.25
2023-03-05T19:06:45.821Z,9.26
2023-03-05T19:09:12.203Z,9.26
2023-03-05T19:11:38.654Z,9.20
2023-03-05T19:14:05.067Z,9.10
2023-03-05T19:16:31.468Z,9.02
2023-03-05T19:18:57.894Z,8.62
2023-03-05T19:21:24.283Z,8.21
2023-03-05T19:23:50.694Z,8.49
2023-03-05T19:26:17.107Z,8.58
2023-03-05T19:28:43.541Z,8.70
2023-03-05T19:31:09.972Z,8.73
2023-03-05T19:33:36.408Z,8.65
2023-03-05T19:36:02.839Z,8.60
2023-03-05T19:38:29.231Z,8.77
2023-03-05T19:40:55.653Z,8.72
2023-03-05T19:43:22.037Z,8.68
2023-03-05T19:45:48.610Z,8.66
2023-03-05T19:48:15.005Z,8.62
2023-03-05T19:50:41.485Z,8.43
2023-03-05T19:53:07.914Z,8.36
2023-03-05T19:55:34.460Z,8.39
2023-03-05T19:58:00.898Z,8.27
2023-03-05T20:00:27.483Z,8.23
2023-03-05T20:02:53.918Z,8.23
2023-03-05T20:05:20.476Z,8.28
2023-03-05T20:07:46.882Z,8.28
2023-03-05T20:10:13.365Z,8.28
2023-03-05T20:12:39.856Z,8.29
2023-03-05T20:15:06.309Z,8.30
2023-03-05T20:17:32.953Z,8.25
2023-03-05T20:19:59.386Z,8.22
2023-03-05T20:22:25.905Z,8.21
2023-03-05T20:24:52.374Z,8.23
2023-03-05T20:27:18.790Z,8.23
2023-03-05T20:29:45.377Z,8.30
2023-03-05T20:32:11.862Z,7.71
2023-03-05T20:34:38.605Z,7.86
2023-03-05T20:37:05.067Z,7.92
2023-03-05T20:39:33.879Z,7.93
2023-03-05T20:42:00.319Z,7.89
2023-03-05T20:44:26.813Z,7.89
2023-03-05T20:46:53.953Z,7.94
2023-03-05T20:49:20.389Z,7.99
2023-03-05T20:51:46.863Z,7.94
2023-03-05T20:54:13.312Z,7.91
2023-03-05T20:56:39.718Z,7.90
2023-03-05T20:59:06.274Z,7.91
2023-03-05T21:01:32.710Z,7.91
2023-03-05T21:03:59.194Z,7.92
2023-03-05T21:06:25.600Z,7.89
2023-03-05T21:08:51.979Z,7.85
2023-03-05T21:11:18.479Z,7.80
2023-03-05T21:13:44.976Z,7.74
2023-03-05T21:16:11.404Z,7.70
2023-03-05T21:18:37.873Z,7.68
2023-03-05T21:21:04.257Z,7.72
2023-03-05T21:23:30.638Z,7.70
2023-03-05T21:25:57.037Z,7.69
2023-03-05T21:28:23.512Z,7.86
2023-03-05T21:30:49.918Z,7.88
2023-03-05T21:33:16.360Z,7.76
2023-03-05T21:35:42.783Z,7.82
2023-03-05T21:38:09.184Z,7.78
2023-03-05T21:40:35.589Z,7.67
2023-03-05T21:43:01.979Z,7.54
2023-03-05T21:45:28.451Z,7.40
2023-03-05T21:47:54.877Z,7.44
2023-03-05T21:50:21.318Z,7.43
2023-03-05T21:52:47.728Z,7.54
2023-03-05T21:55:14.220Z,7.52
2023-03-05T21:57:40.603Z,7.58
2023-03-05T22:00:07.007Z,7.39
2023-03-05T22:02:33.437Z,7.36
2023-03-05T22:05:00.843Z,7.31
2023-03-05T22:07:27.242Z,7.28
2023-03-05T22:09:53.624Z,7.30
2023-03-05T22:12:20.012Z,7.28
2023-03-05T22:14:46.408Z,7.21
2023-03-05T22:17:12.878Z,7.25
2023-03-05T22:19:39.280Z,7.32
2023-03-05T22:22:05.684Z,7.26
2023-03-05T22:24:32.131Z,7.35
2023-03-05T22:26:58.509Z,7.23
2023-03-05T22:29:25.687Z,7.18
2023-03-05T22:31:52.141Z,7.12
2023-03-05T22:34:18.548Z,7.12
2023-03-05T22:36:45.033Z,7.06
2023-03-05T22:39:11.459Z,7.22
2023-03-05T22:41:37.861Z,7.10
2023-03-05T22:44:05.325Z,6.98
2023-03-05T22:46:31.699Z,6.94
2023-03-05T22:48:58.116Z,6.97
2023-03-05T22:51:24.487Z,6.97
2023-03-05T22:53:51.006Z,6.97
2023-03-05T22:56:17.407Z,6.83
2023-03-05T22:58:43.887Z,6.94
2023-03-05T23:01:10.243Z,6.90
2023-03-05T23:03:36.692Z,6.94
2023-03-05T23:06:03.094Z,6.96
2023-03-05T23:08:29.498Z,6.92
2023-03-05T23:10:55.877Z,6.98
2023-03-05T23:13:22.287Z,6.91
2023-03-05T23:15:48.693Z,6.97
2023-03-05T23:18:15.104Z,6.78
2023-03-05T23:20:41.598Z,6.50
2023-03-05T23:23:07.966Z,6.35
2023-03-05T23:25:34.341Z,6.40
2023-03-05T23:28:00.782Z,6.39
2023-03-05T23:30:27.156Z,6.46
2023-03-05T23:32:53.531Z,6.47
2023-03-05T23:35:19.943Z,6.54
2023-03-05T23:37:46.336Z,6.54
2023-03-05T23:40:12.774Z,6.57
2023-03-05T23:42:39.163Z,6.54
2023-03-05T23:45:05.549Z,6.57
2023-03-05T23:47:31.933Z,6.53
2023-03-05T23:49:59.334Z,6.47
2023-03-05T23:52:25.702Z,6.42
2023-03-05T23:54:52.142Z,6.45
2023-03-05T23:57:18.521Z,6.47
2023-03-05T23:59:44.959Z,6.42
